Time;durP1;ratioP1;P1;durP2;ratioP2;P2;SDS_P1;SDS_P2;PMS_P1;PMS_P2;Temp;Humidity;BMP_temperature;BMP_pressure;BME280_temperature;BME280_humidity;BME280_pressure;Samples;Min_cycle;Max_cycle;Signal;HPM_P1;HPM_P2
2022/06/04 00:00:18;;;;;;;13.00;11.77;;;18.10;99.90;;;;;;7360330;19;20431;-77
2022/06/04 00:02:51;;;;;;;15.20;11.77;;;18.00;99.90;;;;;;7369159;19;20455;-78
2022/06/04 00:05:23;;;;;;;15.50;10.90;;;18.20;99.90;;;;;;7369680;19;20424;-78
2022/06/04 00:07:53;;;;;;;14.47;10.63;;;18.20;99.90;;;;;;7369538;19;20416;-78
2022/06/04 00:15:51;;;;;;;16.33;10.33;;;18.30;99.90;;;;;;7363397;19;20400;-78
2022/06/04 00:18:25;;;;;;;11.50;10.20;;;18.50;99.90;;;;;;7370742;19;20507;-78
2022/06/04 00:20:57;;;;;;;13.37;10.50;;;18.60;99.90;;;;;;7364536;19;20674;-78
2022/06/04 00:23:28;;;;;;;10.27;9.37;;;18.60;99.90;;;;;;7371222;19;24289;-78
2022/06/04 00:25:59;;;;;;;10.97;9.60;;;18.70;99.90;;;;;;7365326;19;20423;-78
2022/06/04 00:28:30;;;;;;;11.60;9.63;;;18.70;99.90;;;;;;7365186;19;20943;-78
2022/06/04 00:31:00;;;;;;;10.67;8.97;;;18.70;99.90;;;;;;7365711;19;20432;-78
2022/06/04 00:33:33;;;;;;;11.30;10.20;;;18.60;99.90;;;;;;7371285;19;20418;-78
2022/06/04 00:36:03;;;;;;;10.83;9.30;;;18.50;99.90;;;;;;7363368;19;21054;-78
2022/06/04 00:38:35;;;;;;;10.70;9.67;;;18.50;99.90;;;;;;7365261;19;20412;-78
2022/06/04 00:41:17;;;;;;;12.10;9.70;;;18.50;99.90;;;;;;7367362;19;20401;-78
2022/06/04 00:44:05;;;;;;;11.10;9.90;;;18.50;99.90;;;;;;7368328;19;20824;-78
2022/06/04 00:47:11;;;;;;;10.63;9.53;;;18.30;99.90;;;;;;7364196;19;20455;-77
2022/06/04 00:49:43;;;;;;;9.67;8.67;;;18.30;99.90;;;;;;7363351;19;20510;-78
2022/06/04 00:52:15;;;;;;;8.87;8.00;;;18.20;99.90;;;;;;7367984;19;20448;-78
2022/06/04 00:54:47;;;;;;;9.53;8.63;;;18.30;99.90;;;;;;7359444;19;20492;-78
2022/06/04 00:57:45;;;;;;;11.50;9.57;;;18.40;99.90;;;;;;7368128;19;21034;-77
2022/06/04 01:00:20;;;;;;;10.00;9.00;;;18.40;99.90;;;;;;7349859;19;20527;-77
2022/06/04 01:03:08;;;;;;;10.20;9.10;;;18.40;99.90;;;;;;7366945;19;21370;-78
2022/06/04 01:05:58;;;;;;;9.30;8.40;;;18.60;99.90;;;;;;7367671;19;20530;-78
2022/06/04 01:08:49;;;;;;;8.97;8.00;;;18.70;99.90;;;;;;7364983;19;20393;-78
2022/06/04 01:11:28;;;;;;;8.87;7.90;;;18.60;99.90;;;;;;7368254;19;20421;-78
2022/06/04 01:14:08;;;;;;;10.23;9.27;;;18.50;99.90;;;;;;7373938;19;21382;-78
2022/06/04 01:16:58;;;;;;;11.83;8.90;;;18.20;99.90;;;;;;7373680;19;20411;-78
2022/06/04 01:19:48;;;;;;;9.67;8.77;;;18.10;99.90;;;;;;7370531;19;20408;-78
2022/06/04 01:22:49;;;;;;;11.20;9.00;;;18.20;99.90;;;;;;7377367;19;20408;-79
2022/06/04 01:25:34;;;;;;;12.10;9.60;;;18.20;99.90;;;;;;7372654;19;20435;-77
2022/06/04 01:28:09;;;;;;;9.60;8.70;;;18.30;99.90;;;;;;7361431;19;20364;-79
2022/06/04 01:30:42;;;;;;;10.53;9.43;;;18.10;99.90;;;;;;7371409;19;20442;-79
2022/06/04 01:33:18;;;;;;;10.47;9.00;;;18.10;99.90;;;;;;7371628;19;20409;-79
2022/06/04 01:35:55;;;;;;;11.00;8.37;;;17.80;99.90;;;;;;7374166;19;20404;-79
2022/06/04 01:38:29;;;;;;;9.83;8.87;;;17.90;99.90;;;;;;7370579;19;20846;-79
2022/06/04 01:41:05;;;;;;;11.20;9.80;;;18.00;99.90;;;;;;7366297;19;20437;-77
2022/06/04 01:43:42;;;;;;;11.57;9.37;;;18.00;99.90;;;;;;7369037;19;20416;-79
2022/06/04 01:46:17;;;;;;;10.83;8.60;;;17.80;99.90;;;;;;7369703;19;20383;-78
2022/06/04 01:48:48;;;;;;;12.17;9.00;;;17.70;99.90;;;;;;7370850;19;20470;-79
2022/06/04 01:51:24;;;;;;;11.07;8.67;;;17.70;99.90;;;;;;7371511;19;20404;-77
2022/06/04 01:53:56;;;;;;;9.37;8.47;;;17.90;99.90;;;;;;7364712;19;20419;-79
2022/06/04 01:56:30;;;;;;;9.70;8.70;;;17.90;99.90;;;;;;7360069;19;20420;-79
2022/06/04 01:59:11;;;;;;;11.83;9.50;;;17.70;99.90;;;;;;7359776;19;20533;-77
2022/06/04 02:01:43;;;;;;;9.10;8.20;;;17.70;99.90;;;;;;7369514;19;20923;-78
2022/06/04 02:04:17;;;;;;;9.80;8.90;;;17.90;99.90;;;;;;7368297;19;21072;-78
2022/06/04 02:07:29;;;;;;;11.00;9.10;;;18.00;99.90;;;;;;7374934;19;20999;-78
2022/06/04 02:09:44;;;;;;;9.63;8.70;;;17.80;99.90;;;;;;7369333;19;20415;-78
2022/06/04 02:12:16;;;;;;;10.87;9.63;;;17.80;99.90;;;;;;7370878;19;20388;-78
2022/06/04 02:14:48;;;;;;;10.43;9.33;;;17.90;99.90;;;;;;7370825;19;20404;-78
2022/06/04 02:17:21;;;;;;;10.37;9.03;;;17.90;99.90;;;;;;7366391;19;20369;-78
2022/06/04 02:19:51;;;;;;;11.90;10.40;;;17.60;99.90;;;;;;7365559;19;20408;-78
2022/06/04 02:22:20;;;;;;;10.87;9.67;;;17.60;99.90;;;;;;7369399;19;20417;-78
2022/06/04 02:24:50;;;;;;;13.37;10.33;;;17.50;99.90;;;;;;7370924;19;20420;-78
2022/06/04 02:27:23;;;;;;;11.43;9.87;;;17.50;99.90;;;;;;7372886;19;20412;-78
2022/06/04 02:29:56;;;;;;;11.33;9.67;;;17.40;99.90;;;;;;7370315;19;20424;-78
2022/06/04 02:32:30;;;;;;;11.13;9.93;;;17.50;99.90;;;;;;7360437;19;20956;-78
2022/06/04 02:35:06;;;;;;;11.37;9.13;;;17.50;99.90;;;;;;7371908;19;20495;-78
2022/06/04 02:37:47;;;;;;;9.90;8.73;;;17.80;99.90;;;;;;7368538;19;20479;-78
2022/06/04 02:40:21;;;;;;;10.67;9.43;;;17.90;99.90;;;;;;7367873;19;20783;-78
2022/06/04 02:42:55;;;;;;;11.33;10.13;;;17.80;99.90;;;;;;7369162;19;20944;-77
2022/06/04 02:45:34;;;;;;;13.60;11.50;;;17.80;99.90;;;;;;7369319;19;20420;-78
2022/06/04 02:48:11;;;;;;;11.83;8.67;;;17.90;99.90;;;;;;7370477;19;20762;-78
2022/06/04 02:50:46;;;;;;;10.20;7.73;;;17.80;99.90;;;;;;7377110;19;20808;-78
2022/06/04 02:53:17;;;;;;;11.10;8.80;;;17.70;99.90;;;;;;7367833;19;20487;-78
2022/06/04 02:55:54;;;;;;;9.33;8.33;;;17.60;99.90;;;;;;7374145;19;20502;-78
2022/06/04 02:58:24;;;;;;;7.83;7.03;;;17.80;99.90;;;;;;7366179;19;20423;-78
2022/06/04 03:01:00;;;;;;;8.67;7.77;;;17.80;99.90;;;;;;7366429;19;21447;-78
2022/06/04 03:03:30;;;;;;;8.37;7.57;;;17.80;99.90;;;;;;7371384;19;21112;-77
2022/06/04 03:06:02;;;;;;;6.80;6.20;;;17.60;99.90;;;;;;7368136;19;20508;-78
2022/06/04 03:08:39;;;;;;;8.50;7.00;;;17.70;99.90;;;;;;7368573;19;20438;-78
2022/06/04 03:11:08;;;;;;;9.00;7.00;;;17.90;99.90;;;;;;7370889;19;20423;-78
2022/06/04 03:13:38;;;;;;;6.80;5.97;;;17.90;99.90;;;;;;7372522;19;20440;-79
2022/06/04 03:16:10;;;;;;;7.27;6.30;;;18.00;99.90;;;;;;7371694;19;20432;-79
2022/06/04 03:18:40;;;;;;;8.57;6.67;;;18.00;99.90;;;;;;7370261;19;20453;-79
2022/06/04 03:21:12;;;;;;;8.80;7.07;;;17.90;99.90;;;;;;7371903;19;20477;-78
2022/06/04 03:23:41;;;;;;;6.97;6.27;;;17.80;99.90;;;;;;7369762;19;20459;-79
2022/06/04 03:26:11;;;;;;;8.17;7.37;;;17.80;99.90;;;;;;7373135;19;20430;-79
2022/06/04 03:28:40;;;;;;;7.00;6.30;;;18.00;99.90;;;;;;7365251;19;21082;-79
2022/06/04 03:31:12;;;;;;;8.80;7.93;;;18.10;99.90;;;;;;7367974;19;20444;-79
2022/06/04 03:33:42;;;;;;;7.33;6.43;;;17.90;99.90;;;;;;7365432;19;20484;-76
2022/06/04 03:36:12;;;;;;;6.87;6.27;;;18.00;99.90;;;;;;7371211;19;20432;-78
2022/06/04 03:38:44;;;;;;;8.03;6.53;;;18.20;99.90;;;;;;7362430;19;20416;-78
2022/06/04 03:41:14;;;;;;;9.30;7.77;;;18.40;99.90;;;;;;7370609;19;20396;-78
2022/06/04 03:43:51;;;;;;;8.17;7.03;;;18.50;99.90;;;;;;7365377;19;20384;-78
2022/06/04 03:46:24;;;;;;;8.50;7.47;;;18.30;99.90;;;;;;7363363;19;20519;-78
2022/06/04 03:48:54;;;;;;;7.83;7.07;;;18.20;99.90;;;;;;7370072;19;20454;-78
2022/06/04 03:51:31;;;;;;;10.90;8.47;;;18.10;99.90;;;;;;7368620;19;20403;-79
2022/06/04 03:54:00;;;;;;;7.80;7.10;;;17.70;99.90;;;;;;7362889;19;20400;-78
2022/06/04 03:56:29;;;;;;;7.80;6.93;;;17.70;99.90;;;;;;7367051;19;21674;-78
2022/06/04 03:58:59;;;;;;;6.23;5.53;;;17.70;99.90;;;;;;7360229;19;20463;-78
2022/06/04 04:01:33;;;;;;;7.90;6.80;;;17.80;99.90;;;;;;7366238;19;20905;-79
2022/06/04 04:04:03;;;;;;;15.73;7.90;;;18.00;99.90;;;;;;7367205;19;21328;-78
2022/06/04 04:06:35;;;;;;;11.33;8.63;;;18.30;99.90;;;;;;7370586;19;21788;-78
2022/06/04 04:09:09;;;;;;;9.93;8.50;;;18.40;99.90;;;;;;7363058;19;20441;-78
2022/06/04 04:11:39;;;;;;;7.83;6.43;;;18.50;99.90;;;;;;7371818;19;20525;-78
2022/06/04 04:14:08;;;;;;;7.03;6.30;;;18.40;99.90;;;;;;7367575;19;20999;-78
2022/06/04 04:16:43;;;;;;;8.80;7.90;;;18.30;99.90;;;;;;7373141;19;20820;-78
2022/06/04 04:19:13;;;;;;;8.23;7.43;;;18.30;99.90;;;;;;7363586;19;20408;-78
2022/06/04 04:21:43;;;;;;;8.30;7.33;;;18.00;99.90;;;;;;7366757;19;20412;-78
2022/06/04 04:24:13;;;;;;;7.70;6.90;;;17.80;99.90;;;;;;7362012;19;20475;-78
2022/06/04 04:26:44;;;;;;;9.03;8.13;;;17.90;99.90;;;;;;7364550;19;20412;-78
2022/06/04 04:29:14;;;;;;;9.30;8.30;;;17.90;99.90;;;;;;7363658;19;20455;-78
2022/06/04 04:31:46;;;;;;;8.90;7.30;;;17.80;99.90;;;;;;7362042;19;20888;-78
2022/06/04 04:34:15;;;;;;;10.10;8.63;;;17.80;99.90;;;;;;7371049;19;20400;-79
2022/06/04 04:36:46;;;;;;;8.37;7.57;;;18.00;99.90;;;;;;7364296;19;20543;-79
2022/06/04 04:39:15;;;;;;;10.17;8.07;;;18.30;99.90;;;;;;7361440;19;20674;-79
2022/06/04 04:41:44;;;;;;;7.77;6.97;;;18.40;99.90;;;;;;7368493;19;20412;-79
2022/06/04 04:44:14;;;;;;;10.63;9.53;;;18.70;99.90;;;;;;7368073;19;20493;-79
2022/06/04 04:46:46;;;;;;;9.10;8.20;;;18.80;99.90;;;;;;7376209;19;20541;-76
2022/06/04 04:49:15;;;;;;;9.90;8.90;;;18.80;99.90;;;;;;7380904;19;20483;-77
2022/06/04 04:51:45;;;;;;;9.20;8.30;;;19.00;99.90;;;;;;7381474;19;20483;-77
2022/06/04 04:54:14;;;;;;;10.33;9.20;;;19.30;99.90;;;;;;7375598;19;20437;-77
2022/06/04 04:56:44;;;;;;;9.40;8.40;;;19.30;99.90;;;;;;7361563;19;20754;-78
2022/06/04 04:59:14;;;;;;;9.30;8.40;;;19.30;99.90;;;;;;7370181;19;20502;-78
2022/06/04 05:01:46;;;;;;;8.80;7.57;;;19.30;99.90;;;;;;7367917;19;20420;-78
2022/06/04 05:04:15;;;;;;;9.83;7.67;;;19.60;99.90;;;;;;7370560;19;20403;-78
2022/06/04 05:06:47;;;;;;;9.10;7.37;;;19.80;99.90;;;;;;7376741;19;20968;-79
2022/06/04 05:09:19;;;;;;;9.40;8.43;;;20.10;99.90;;;;;;7367629;19;20404;-79
2022/06/04 05:11:49;;;;;;;7.97;7.10;;;20.30;99.90;;;;;;7375335;19;20416;-79
2022/06/04 05:14:19;;;;;;;8.90;8.00;;;20.40;99.90;;;;;;7378621;19;21251;-79
2022/06/04 05:16:54;;;;;;;9.73;8.80;;;20.60;99.90;;;;;;7380539;19;20368;-79
2022/06/04 05:19:23;;;;;;;9.07;7.73;;;20.70;99.90;;;;;;7376389;19;21053;-79
2022/06/04 05:21:53;;;;;;;5.83;5.37;;;20.50;99.90;;;;;;7365619;19;20520;-79
2022/06/04 05:24:26;;;;;;;7.80;7.00;;;20.60;99.90;;;;;;7374810;19;20482;-79
2022/06/04 05:26:56;;;;;;;8.47;7.77;;;20.60;99.90;;;;;;7375884;19;20396;-79
2022/06/04 05:29:28;;;;;;;9.97;7.60;;;20.80;99.90;;;;;;7391675;19;20593;-82
2022/06/04 05:32:02;;;;;;;10.80;7.33;;;20.80;99.90;;;;;;7385215;19;21170;-80
2022/06/04 05:34:32;;;;;;;7.63;6.93;;;20.80;99.90;;;;;;7410676;19;20391;-82
2022/06/04 05:37:03;;;;;;;9.20;8.30;;;20.80;99.90;;;;;;7421245;19;20408;-83
2022/06/04 05:39:33;;;;;;;9.40;8.47;;;20.70;99.90;;;;;;7410902;19;20409;-83
2022/06/04 05:42:03;;;;;;;8.50;7.80;;;20.40;99.90;;;;;;7399470;19;20387;-84
2022/06/04 05:44:33;;;;;;;8.47;7.40;;;19.90;99.90;;;;;;7412167;19;20428;-81
2022/06/04 05:47:08;;;;;;;9.27;7.50;;;19.90;99.90;;;;;;7421387;19;20416;-82
2022/06/04 05:49:40;;;;;;;9.13;7.80;;;20.20;99.90;;;;;;7423687;19;20423;-83
2022/06/04 05:52:13;;;;;;;9.70;8.47;;;20.30;99.90;;;;;;7392321;19;21646;-83
2022/06/04 05:54:42;;;;;;;8.53;7.73;;;20.30;99.90;;;;;;7395637;19;20471;-83
2022/06/04 05:57:12;;;;;;;10.43;7.93;;;20.40;99.90;;;;;;7383634;19;20531;-82
2022/06/04 05:59:44;;;;;;;9.10;7.57;;;20.30;99.90;;;;;;7379881;19;20488;-83
2022/06/04 06:02:16;;;;;;;9.17;8.00;;;20.40;99.90;;;;;;7379040;19;20941;-83
2022/06/04 06:04:45;;;;;;;8.00;7.20;;;20.40;99.90;;;;;;7380657;19;20432;-82
2022/06/04 06:07:15;;;;;;;5.87;5.30;;;20.30;99.90;;;;;;7374459;19;20483;-81
2022/06/04 06:09:47;;;;;;;6.23;5.63;;;20.20;99.90;;;;;;7375019;19;20396;-81
2022/06/04 06:12:16;;;;;;;6.53;5.93;;;20.20;99.90;;;;;;7375189;19;20396;-76
2022/06/04 06:14:46;;;;;;;6.47;4.53;;;20.20;99.90;;;;;;7372502;19;20389;-75
2022/06/04 06:17:18;;;;;;;9.40;6.40;;;20.10;99.90;;;;;;7352997;19;20430;-72
2022/06/04 06:19:48;;;;;;;7.20;6.50;;;19.40;99.90;;;;;;7368147;19;21014;-74
2022/06/04 06:22:17;;;;;;;12.33;7.90;;;19.10;99.90;;;;;;7370933;19;20400;-73
2022/06/04 06:24:49;;;;;;;10.30;8.30;;;18.30;99.90;;;;;;7370195;19;20420;-74
2022/06/04 06:27:19;;;;;;;10.10;8.90;;;17.80;99.90;;;;;;7364660;19;20409;-73
2022/06/04 06:29:48;;;;;;;17.23;11.60;;;17.60;99.90;;;;;;7367306;19;20475;-72
2022/06/04 06:32:23;;;;;;;11.23;10.13;;;17.50;99.90;;;;;;7363058;19;20416;-72
2022/06/04 06:34:53;;;;;;;12.10;9.67;;;17.60;99.90;;;;;;7362814;19;21020;-73
2022/06/04 06:37:23;;;;;;;12.00;10.60;;;17.80;99.90;;;;;;7363278;19;20400;-72
2022/06/04 06:39:53;;;;;;;14.10;10.77;;;17.80;99.90;;;;;;7371029;19;20372;-72
2022/06/04 06:42:22;;;;;;;13.67;11.30;;;17.80;99.90;;;;;;7365363;19;21302;-73
2022/06/04 06:45:01;;;;;;;13.07;9.97;;;17.90;99.90;;;;;;7362935;19;20415;-73
2022/06/04 06:47:34;;;;;;;18.93;12.67;;;18.30;99.90;;;;;;7362132;19;20372;-71
2022/06/04 06:50:03;;;;;;;16.60;13.00;;;18.50;99.90;;;;;;7375861;19;20475;-71
2022/06/04 06:52:34;;;;;;;17.00;14.17;;;18.60;99.90;;;;;;7372559;19;20996;-71
2022/06/04 06:55:04;;;;;;;18.90;14.00;;;18.70;99.90;;;;;;7371963;19;20416;-72
2022/06/04 06:57:33;;;;;;;18.37;11.87;;;18.70;99.90;;;;;;7369091;19;20563;-72
2022/06/04 07:00:04;;;;;;;19.20;14.17;;;18.60;99.90;;;;;;7377105;19;20431;-72
2022/06/04 07:02:36;;;;;;;16.90;14.10;;;18.60;99.90;;;;;;7375599;19;20785;-72
2022/06/04 07:05:06;;;;;;;18.83;15.63;;;18.70;99.90;;;;;;7374746;19;20404;-72
2022/06/04 07:07:36;;;;;;;17.20;14.40;;;18.50;99.90;;;;;;7378412;19;20391;-72
2022/06/04 07:10:07;;;;;;;23.23;15.97;;;18.30;99.90;;;;;;7375201;19;20442;-72
2022/06/04 07:12:36;;;;;;;19.30;14.53;;;18.30;99.90;;;;;;7373160;19;20381;-71
2022/06/04 07:15:07;;;;;;;21.87;14.40;;;18.30;99.90;;;;;;7374841;19;20364;-72
2022/06/04 07:17:39;;;;;;;16.67;14.87;;;;;;;;;;7373701;19;20420;-71
2022/06/04 07:20:09;;;;;;;25.70;15.00;;;18.80;99.90;;;;;;7372398;19;20471;-71
2022/06/04 07:22:39;;;;;;;19.00;15.37;;;19.00;99.90;;;;;;7378175;19;20424;-72
2022/06/04 07:25:09;;;;;;;20.47;16.00;;;;;;;;;;7371425;19;20376;-72
2022/06/04 07:27:38;;;;;;;26.20;18.40;;;19.40;99.90;;;;;;7372141;19;20455;-72
2022/06/04 07:30:11;;;;;;;20.30;14.20;;;19.60;99.90;;;;;;7376215;19;20376;-72
2022/06/04 07:32:43;;;;;;;20.53;16.70;;;19.90;99.90;;;;;;7373345;19;20401;-72
2022/06/04 07:35:13;;;;;;;24.43;17.70;;;20.10;99.90;;;;;;7370531;19;20732;-72
2022/06/04 07:37:43;;;;;;;25.40;20.23;;;20.30;99.90;;;;;;7370998;19;20365;-72
2022/06/04 07:40:14;;;;;;;22.47;17.93;;;20.60;99.90;;;;;;7374379;19;20979;-73
2022/06/04 07:42:45;;;;;;;24.17;19.23;;;20.80;99.90;;;;;;7374733;19;20371;-73
2022/06/04 07:45:15;;;;;;;25.13;18.93;;;20.80;99.90;;;;;;7369263;19;21005;-72
2022/06/04 07:47:47;;;;;;;27.00;19.80;;;20.70;99.90;;;;;;7370658;19;20412;-72
2022/06/04 07:50:17;;;;;;;21.93;16.63;;;20.60;99.90;;;;;;7372871;19;20400;-72
2022/06/04 07:52:46;;;;;;;24.03;19.10;;;20.40;99.90;;;;;;7375364;19;20962;-72
2022/06/04 07:55:16;;;;;;;20.20;15.90;;;20.60;99.90;;;;;;7369721;19;20392;-72
2022/06/04 07:57:45;;;;;;;22.87;20.23;;;20.80;99.90;;;;;;7369146;19;21123;-72
2022/06/04 08:00:16;;;;;;;23.70;19.40;;;21.00;99.90;;;;;;7369719;19;20424;-72
2022/06/04 08:02:49;;;;;;;25.93;20.13;;;20.90;99.90;;;;;;7373830;19;20412;-71
2022/06/04 08:05:20;;;;;;;20.23;16.03;;;20.90;99.90;;;;;;7372177;19;20689;-72
2022/06/04 08:07:52;;;;;;;21.20;18.90;;;21.20;99.90;;;;;;7371963;19;20384;-72
2022/06/04 08:10:21;;;;;;;22.30;16.77;;;21.20;99.90;;;;;;7359855;19;20388;-72
2022/06/04 08:12:51;;;;;;;14.47;12.93;;;21.20;99.90;;;;;;7348313;19;20408;-71
2022/06/04 08:15:21;;;;;;;18.70;16.80;;;21.60;99.90;;;;;;7368488;19;21583;-74
2022/06/04 08:17:53;;;;;;;21.63;18.20;;;21.90;99.90;;;;;;7385757;19;20364;-72
2022/06/04 08:20:22;;;;;;;14.30;12.80;;;22.00;99.90;;;;;;7379615;19;20368;-72
2022/06/04 08:22:52;;;;;;;13.40;12.10;;;22.20;99.90;;;;;;7393589;19;20712;-72
2022/06/04 08:25:23;;;;;;;17.07;15.37;;;22.60;99.90;;;;;;7395138;19;20434;-72
2022/06/04 08:27:53;;;;;;;14.10;12.70;;;22.70;99.90;;;;;;7391677;19;20427;-72
2022/06/04 08:30:22;;;;;;;13.20;11.90;;;22.60;99.90;;;;;;7384467;19;20455;-72
2022/06/04 08:32:54;;;;;;;12.67;11.47;;;22.50;99.90;;;;;;7391724;19;20382;-72
2022/06/04 08:35:24;;;;;;;12.30;11.00;;;22.60;99.90;;;;;;7385024;19;20408;-72
2022/06/04 08:37:53;;;;;;;8.60;7.80;;;22.50;99.90;;;;;;7383952;19;20450;-72
2022/06/04 08:40:31;;;;;;;14.57;11.30;;;22.90;99.90;;;;;;7385039;19;20445;-72
2022/06/04 08:43:15;;;;;;;11.90;9.17;;;23.30;99.90;;;;;;7387385;19;20395;-72
2022/06/04 08:45:44;;;;;;;10.23;9.13;;;23.70;99.90;;;;;;7380783;19;21337;-72
2022/06/04 08:48:21;;;;;;;9.43;8.53;;;23.50;99.90;;;;;;7375878;19;20363;-72
2022/06/04 08:50:54;;;;;;;10.50;9.50;;;23.50;99.90;;;;;;7376083;19;20371;-71
2022/06/04 08:53:27;;;;;;;7.90;7.10;;;23.90;99.90;;;;;;7372086;19;20380;-72
2022/06/04 08:58:58;;;;;;;7.37;5.40;;;24.60;99.90;;;;;;7366198;19;20384;-72
2022/06/04 09:01:34;;;;;;;8.50;7.70;;;25.10;99.90;;;;;;7373016;19;20392;-72
2022/06/04 09:04:19;;;;;;;9.37;8.03;;;25.20;99.90;;;;;;7370646;19;20412;-70
2022/06/04 09:06:58;;;;;;;9.73;7.80;;;25.40;99.90;;;;;;7372300;19;20419;-72
2022/06/04 09:09:34;;;;;;;5.70;4.80;;;25.50;99.90;;;;;;7372032;19;20445;-71
2022/06/04 09:12:09;;;;;;;10.33;8.80;;;25.50;99.90;;;;;;7373216;19;20372;-72
2022/06/04 09:14:43;;;;;;;6.63;5.97;;;25.50;99.90;;;;;;7374136;19;20384;-72
2022/06/04 09:17:18;;;;;;;7.00;5.97;;;25.70;99.90;;;;;;7373456;19;20424;-72
2022/06/04 09:19:59;;;;;;;6.33;5.73;;;26.00;99.90;;;;;;7370514;19;20423;-72
2022/06/04 09:22:36;;;;;;;9.10;8.30;;;26.30;99.90;;;;;;7373311;19;20383;-71
2022/06/04 09:25:07;;;;;;;8.67;6.47;;;26.30;99.90;;;;;;7371139;19;20371;-72
2022/06/04 09:27:45;;;;;;;8.93;7.73;;;26.60;99.90;;;;;;7369680;19;20388;-70
2022/06/04 09:30:26;;;;;;;10.50;8.30;;;26.50;99.90;;;;;;7370132;19;21621;-70
2022/06/04 09:33:21;;;;;;;8.77;8.00;;;26.10;99.90;;;;;;7373616;19;20395;-70
2022/06/04 09:35:57;;;;;;;7.47;6.30;;;26.40;99.90;;;;;;7375786;19;20910;-72
2022/06/04 09:38:28;;;;;;;7.93;6.77;;;26.60;99.90;;;;;;7374672;19;20800;-71
2022/06/04 09:41:07;;;;;;;8.10;7.40;;;26.80;99.90;;;;;;7372799;19;20765;-72
2022/06/04 09:43:38;;;;;;;9.37;7.90;;;27.10;99.90;;;;;;7374703;19;20415;-72
2022/06/04 09:46:13;;;;;;;8.23;6.47;;;26.60;99.90;;;;;;7375926;19;20423;-72
2022/06/04 09:48:51;;;;;;;6.53;5.87;;;25.90;99.90;;;;;;7376436;19;20477;-70
2022/06/04 09:51:26;;;;;;;7.50;6.80;;;26.10;99.90;;;;;;7378787;19;20367;-72
2022/06/04 09:54:02;;;;;;;7.17;5.70;;;26.10;99.90;;;;;;7379201;19;20442;-72
2022/06/04 09:56:35;;;;;;;8.77;8.07;;;26.20;99.90;;;;;;7372847;19;20445;-72
2022/06/04 09:59:20;;;;;;;9.37;8.33;;;26.00;99.90;;;;;;7369941;19;20384;-70
2022/06/04 10:02:01;;;;;;;8.50;6.60;;;25.90;99.90;;;;;;7377344;19;20774;-72
2022/06/04 10:04:40;;;;;;;9.10;8.20;;;25.90;99.90;;;;;;7373921;19;20463;-72
2022/06/04 10:07:14;;;;;;;10.53;9.60;;;25.80;99.90;;;;;;7375365;19;20753;-72
2022/06/04 10:09:58;;;;;;;10.20;9.20;;;25.60;99.90;;;;;;7375041;19;20392;-72
2022/06/04 10:15:20;;;;;;;9.40;8.60;;;25.70;99.90;;;;;;7373283;19;21264;-72
2022/06/04 10:18:15;;;;;;;11.37;9.57;;;25.50;99.90;;;;;;7375014;19;20451;-71
2022/06/04 10:20:53;;;;;;;11.13;10.13;;;25.20;99.90;;;;;;7366441;19;20405;-72
2022/06/04 10:23:26;;;;;;;12.90;10.47;;;24.80;99.90;;;;;;7362868;19;20425;-72
2022/06/04 10:26:28;;;;;;;12.30;9.57;;;24.60;99.90;;;;;;7376262;19;20384;-72
2022/06/04 10:29:11;;;;;;;9.80;8.53;;;24.50;99.90;;;;;;7377084;19;21491;-72
2022/06/04 10:31:51;;;;;;;8.87;8.07;;;24.40;99.90;;;;;;7376894;19;20495;-72
2022/06/04 10:34:31;;;;;;;9.47;8.47;;;24.30;99.90;;;;;;7374343;19;20462;-72
2022/06/04 10:37:15;;;;;;;10.83;9.87;;;24.20;99.90;;;;;;7376438;19;20491;-72
2022/06/04 10:39:55;;;;;;;11.60;9.17;;;24.30;99.90;;;;;;7375108;19;20388;-72
2022/06/04 10:42:37;;;;;;;10.10;9.10;;;24.30;99.90;;;;;;7374653;19;20476;-72
2022/06/04 10:45:18;;;;;;;9.27;8.37;;;24.30;99.90;;;;;;7369586;19;20425;-71
2022/06/04 10:47:54;;;;;;;7.80;7.00;;;24.50;99.90;;;;;;7375358;19;20415;-72
2022/06/04 10:51:25;;;;;;;8.00;7.20;;;24.70;99.90;;;;;;7374124;19;20926;-72
2022/06/04 10:53:30;;;;;;;10.80;8.43;;;24.80;99.90;;;;;;7375527;19;20392;-72
2022/06/04 10:56:07;;;;;;;8.43;7.67;;;24.80;99.90;;;;;;7369123;19;20812;-72
2022/06/04 10:58:42;;;;;;;7.50;6.33;;;24.60;99.90;;;;;;7372243;19;21197;-71
2022/06/04 11:01:17;;;;;;;8.80;7.60;;;24.30;99.90;;;;;;7374059;19;20400;-71
2022/06/04 11:03:55;;;;;;;8.50;7.73;;;24.20;99.90;;;;;;7372667;19;20372;-71
2022/06/04 11:06:29;;;;;;;8.47;7.67;;;24.10;99.90;;;;;;7373641;19;20376;-72
2022/06/04 11:09:04;;;;;;;13.43;9.50;;;24.00;99.90;;;;;;7399858;19;20404;-72
2022/06/04 11:11:40;;;;;;;9.93;9.00;;;23.90;99.90;;;;;;7396409;19;20827;-71
2022/06/04 11:14:14;;;;;;;10.50;9.50;;;23.90;99.90;;;;;;7408229;19;20405;-72
2022/06/04 11:16:48;;;;;;;12.77;11.47;;;23.70;99.90;;;;;;7395614;19;20380;-72
2022/06/04 11:19:27;;;;;;;10.20;9.20;;;23.70;99.90;;;;;;7386121;19;20458;-72
2022/06/04 11:22:02;;;;;;;14.03;12.07;;;23.60;99.90;;;;;;7399285;19;20416;-71
2022/06/04 11:24:38;;;;;;;11.30;10.20;;;23.60;99.90;;;;;;7395786;19;20390;-72
2022/06/04 11:27:16;;;;;;;15.17;13.20;;;23.30;99.90;;;;;;7392375;19;20376;-72
2022/06/04 11:29:46;;;;;;;12.40;11.20;;;23.20;99.90;;;;;;7400139;19;20418;-72
2022/06/04 11:32:25;;;;;;;11.57;10.40;;;23.00;99.90;;;;;;7413045;19;20417;-73
2022/06/04 11:35:27;;;;;;;12.37;11.13;;;23.20;99.90;;;;;;7407454;19;21105;-73
2022/06/04 11:38:32;;;;;;;9.57;8.60;;;23.30;99.90;;;;;;7406634;19;20384;-71
2022/06/04 11:41:17;;;;;;;16.03;13.90;;;23.50;99.90;;;;;;7391325;19;20426;-73
2022/06/04 11:44:03;;;;;;;15.40;13.80;;;23.20;99.90;;;;;;7382395;19;20410;-73
2022/06/04 11:46:42;;;;;;;14.17;12.80;;;23.20;99.90;;;;;;7368151;19;20459;-73
2022/06/04 11:49:29;;;;;;;16.47;14.77;;;23.40;99.90;;;;;;7370459;19;20419;-77
2022/06/04 11:52:19;;;;;;;18.67;16.67;;;23.40;99.90;;;;;;7368147;19;20952;-78
2022/06/04 11:55:20;;;;;;;19.10;17.10;;;23.50;99.90;;;;;;7366413;19;20428;-78
2022/06/04 11:58:15;;;;;;;16.20;14.53;;;23.70;99.90;;;;;;7369497;19;20439;-78
2022/06/04 12:00:49;;;;;;;15.63;14.10;;;23.70;99.90;;;;;;7369032;19;20918;-78
2022/06/04 12:03:26;;;;;;;14.77;13.37;;;23.80;99.90;;;;;;7373247;19;21449;-78
2022/06/04 12:06:03;;;;;;;16.17;14.50;;;24.10;99.90;;;;;;7372867;19;20446;-77
2022/06/04 12:08:37;;;;;;;18.53;16.53;;;24.40;99.90;;;;;;7370630;19;20446;-78
2022/06/04 12:11:26;;;;;;;18.70;16.93;;;24.60;99.90;;;;;;7364421;19;20412;-76
2022/06/04 12:14:03;;;;;;;16.37;14.73;;;24.50;99.90;;;;;;7369786;19;21046;-78
2022/06/04 12:16:42;;;;;;;13.07;11.87;;;24.70;99.90;;;;;;7362335;19;20416;-77
2022/06/04 12:25:09;;;;;;;16.80;14.40;;;26.00;99.90;;;;;;7357671;19;20400;-83
2022/06/04 12:27:55;;;;;;;14.43;12.97;;;26.80;99.90;;;;;;7364445;19;20396;-83
2022/06/04 12:30:34;;;;;;;11.50;10.30;;;28.10;97.60;;;;;;7362417;19;22874;-77
2022/06/04 12:33:10;;;;;;;11.17;10.20;;;30.30;92.60;;;;;;7364843;19;20818;-81
2022/06/04 12:35:43;;;;;;;13.67;12.30;;;32.10;81.00;;;;;;7360273;19;21548;-82
2022/06/04 12:38:17;;;;;;;13.83;12.63;;;31.40;75.80;;;;;;7362947;19;20783;-80
2022/06/04 12:40:48;;;;;;;15.63;13.10;;;30.90;77.20;;;;;;7368704;19;20415;-82
2022/06/04 12:43:33;;;;;;;12.80;11.70;;;30.60;80.30;;;;;;7352879;19;20431;-81
2022/06/04 12:46:30;;;;;;;12.70;11.40;;;30.90;76.20;;;;;;7354513;19;20845;-81
2022/06/04 12:49:17;;;;;;;13.27;12.17;;;30.60;76.70;;;;;;7360122;19;21380;-80
2022/06/04 12:51:53;;;;;;;13.83;12.73;;;30.10;79.90;;;;;;7354667;19;20416;-82
2022/06/04 12:54:53;;;;;;;12.50;11.23;;;31.20;73.00;;;;;;7371743;19;20396;-87
2022/06/04 12:57:45;;;;;;;11.97;10.87;;;32.20;68.20;;;;;;7346448;19;20466;-85
2022/06/04 13:00:27;;;;;;;10.40;9.40;;;32.50;64.50;;;;;;7353679;19;20397;-84
2022/06/04 13:03:30;;;;;;;10.40;9.50;;;33.20;63.80;;;;;;7364570;19;20444;-85
2022/06/04 13:06:06;;;;;;;11.03;10.03;;;34.40;57.80;;;;;;7366175;19;20504;-83
2022/06/04 13:08:46;;;;;;;8.10;7.50;;;35.00;54.70;;;;;;7376399;19;20412;-83
2022/06/04 13:11:46;;;;;;;6.93;6.43;;;35.80;51.00;;;;;;7379697;19;20403;-82
2022/06/04 13:14:28;;;;;;;9.30;8.60;;;36.80;47.00;;;;;;7378024;19;20924;-82
2022/06/04 13:17:02;;;;;;;9.67;8.97;;;35.70;47.80;;;;;;7346436;19;20436;-80
2022/06/04 13:20:01;;;;;;;7.90;7.20;;;35.40;49.10;;;;;;7375150;19;20408;-81
2022/06/04 13:22:39;;;;;;;8.07;7.30;;;36.30;47.00;;;;;;7381833;19;20943;-83
2022/06/04 13:25:17;;;;;;;7.33;6.60;;;35.80;46.20;;;;;;7376572;19;20382;-82
2022/06/04 13:27:53;;;;;;;6.40;5.90;;;36.00;46.40;;;;;;7379569;19;20490;-83
2022/06/04 13:30:28;;;;;;;5.73;5.33;;;36.20;45.50;;;;;;7377400;19;21188;-82
2022/06/04 13:33:09;;;;;;;7.70;6.90;;;36.40;45.20;;;;;;7378278;19;20431;-83
2022/06/04 13:35:46;;;;;;;6.50;5.90;;;36.70;43.60;;;;;;7374845;19;20945;-82